Time;durP1;ratioP1;P1;durP2;ratioP2;P2;SDS_P1;SDS_P2;PMS_P1;PMS_P2;Temp;Humidity;BMP_temperature;BMP_pressure;BME280_temperature;BME280_humidity;BME280_pressure;Samples;Min_cycle;Max_cycle;Signal;HPM_P1;HPM_P2
2023/04/11 00:00:34;;;;;;;4.93;2.47;;;;;;;-146.25;100.00;52118.81;2081095;28;20048;-73
2023/04/11 00:01:36;;;;;;;4.45;2.10;;;;;;;-146.25;100.00;52169.50;2080220;28;32837;-72
2023/04/11 00:02:38;;;;;;;4.13;2.40;;;;;;;-146.25;100.00;52187.75;2080502;28;33533;-73
2023/04/11 00:03:40;;;;;;;5.68;2.10;;;;;;;-146.25;100.00;52179.63;2080918;28;35187;-72
2023/04/11 00:04:41;;;;;;;5.03;2.38;;;;;;;-146.25;100.00;52167.47;2081082;28;34805;-72
2023/04/11 00:05:43;;;;;;;3.50;2.35;;;;;;;-146.25;100.00;52163.41;2080422;28;32102;-72
2023/04/11 00:06:47;;;;;;;5.03;2.15;;;;;;;-146.25;100.00;52141.13;2080566;28;34063;-72
2023/04/11 00:07:51;;;;;;;4.90;2.40;;;;;;;-146.25;100.00;52159.34;2080625;28;34483;-72
2023/04/11 00:08:52;;;;;;;5.07;2.13;;;;;;;-146.25;100.00;52159.34;2081561;28;20823;-72
2023/04/11 00:09:55;;;;;;;4.63;2.58;;;;;;;-146.25;100.00;52173.56;2080341;28;36201;-72
2023/04/11 00:10:56;;;;;;;3.00;2.22;;;;;;;-146.25;100.00;52187.75;2081454;28;32013;-72
2023/04/11 00:11:58;;;;;;;2.97;1.85;;;;;;;-146.25;100.00;52137.06;2080643;28;32613;-72
2023/04/11 00:13:00;;;;;;;3.40;2.17;;;;;;;-146.25;100.00;52169.50;2080043;28;37304;-72
2023/04/11 00:14:04;;;;;;;4.85;2.20;;;;;;;-146.25;100.00;52179.63;2080775;28;20041;-71
2023/04/11 00:15:09;;;;;;;4.15;2.08;;;;;;;-146.25;100.00;52199.91;2080970;28;35486;-72
2023/04/11 00:16:11;;;;;;;5.68;2.30;;;;;;;-146.25;100.00;52193.81;2080984;28;37203;-71
2023/04/11 00:17:16;;;;;;;2.92;2.05;;;;;;;-146.25;100.00;52151.25;2081096;28;26805;-72
2023/04/11 00:18:18;;;;;;;5.43;1.88;;;;;;;-146.25;99.77;52159.34;2080660;28;36321;-72
2023/04/11 00:19:24;;;;;;;4.32;2.00;;;;;;;-146.25;100.00;52159.34;2080159;28;31155;-71
2023/04/11 00:20:26;;;;;;;4.13;2.10;;;;;;;-146.25;99.79;52230.31;2080105;28;29577;-72
2023/04/11 00:21:27;;;;;;;3.35;2.05;;;;;;;-146.25;100.00;52143.13;2080708;28;35300;-71
2023/04/11 00:22:29;;;;;;;3.63;1.95;;;;;;;-146.25;100.00;52169.50;2080085;28;32450;-72
2023/04/11 00:23:34;;;;;;;5.75;2.20;;;;;;;-146.25;99.53;52177.59;2080666;28;20068;-71
2023/04/11 00:24:35;;;;;;;3.67;2.30;;;;;;;-146.25;99.79;52189.78;2080047;28;30494;-72
2023/04/11 00:25:37;;;;;;;4.68;2.22;;;;;;;-146.25;100.00;52206.00;2081028;28;33329;-71
2023/04/11 00:26:39;;;;;;;7.97;2.33;;;;;;;-146.25;100.00;52195.84;2080435;28;38496;-73
2023/04/11 00:27:43;;;;;;;3.70;2.25;;;;;;;-146.25;100.00;52165.44;2081321;28;25577;-72
2023/04/11 00:28:45;;;;;;;3.25;1.95;;;;;;;-146.25;99.89;52181.66;2080849;28;28169;-72
2023/04/11 00:29:46;;;;;;;3.65;2.28;;;;;;;-146.25;99.73;52155.31;2081412;28;27104;-73
2023/04/11 00:30:49;;;;;;;5.35;1.88;;;;;;;-146.25;99.97;52161.38;2081028;28;20045;-73
2023/04/11 00:31:51;;;;;;;3.15;1.90;;;;;;;-146.25;100.00;52173.56;2081471;28;20049;-72
2023/04/11 00:32:53;;;;;;;4.68;2.08;;;;;;;-146.25;99.50;52169.50;2081346;28;25422;-72
2023/04/11 00:33:55;;;;;;;3.20;2.00;;;;;;;-146.25;98.83;52128.94;2082763;28;20054;-72
2023/04/11 00:34:56;;;;;;;4.43;2.10;;;;;;;-146.25;99.19;52161.38;2088601;28;27356;-72
2023/04/11 00:35:58;;;;;;;5.75;1.77;;;;;;;-146.25;98.85;52181.66;2088599;28;20026;-72
2023/04/11 00:37:00;;;;;;;4.32;2.20;;;;;;;-146.25;99.35;52193.81;2087979;28;31183;-72
2023/04/11 00:38:03;;;;;;;4.80;2.22;;;;;;;-146.25;99.00;52167.47;2089609;28;22818;-72
2023/04/11 00:39:05;;;;;;;4.00;1.92;;;;;;;-146.25;98.83;52179.63;2088535;28;20119;-72
2023/04/11 00:40:10;;;;;;;6.45;1.98;;;;;;;-146.25;98.91;52167.47;2088842;28;20842;-71
2023/04/11 00:41:13;;;;;;;4.63;2.05;;;;;;;-146.25;99.57;52141.13;2088774;28;20155;-72
2023/04/11 00:42:15;;;;;;;2.72;1.80;;;;;;;-146.25;99.18;52169.50;2088368;28;28069;-72
2023/04/11 00:43:19;;;;;;;3.90;1.92;;;;;;;-146.25;99.72;52169.50;2087744;28;20038;-72
2023/04/11 00:44:24;;;;;;;4.55;2.05;;;;;;;-146.25;99.50;52157.34;2080808;28;24303;-72
2023/04/11 00:45:26;;;;;;;3.10;1.60;;;;;;;-146.25;99.84;52185.72;2088795;28;24449;-72
2023/04/11 00:46:28;;;;;;;3.53;2.22;;;;;;;-146.25;100.00;52185.72;2088799;28;26326;-73
2023/04/11 00:47:31;;;;;;;4.10;2.05;;;;;;;-146.25;100.00;52153.28;2080764;28;21025;-73
2023/04/11 00:48:37;;;;;;;6.70;2.10;;;;;;;-146.25;100.00;52143.13;2073024;28;20054;-74
2023/04/11 00:49:40;;;;;;;3.78;2.20;;;;;;;-146.25;100.00;52206.00;2081027;28;27317;-75
2023/04/11 00:50:42;;;;;;;5.32;2.30;;;;;;;-146.25;100.00;52161.38;2081255;28;29677;-74
2023/04/11 00:51:44;;;;;;;3.78;2.15;;;;;;;-146.25;100.00;52177.59;2079930;28;20042;-73
2023/04/11 00:52:49;;;;;;;4.05;2.38;;;;;;;-146.25;100.00;52143.13;2080747;28;20045;-74
2023/04/11 00:53:51;;;;;;;10.27;2.35;;;;;;;-146.25;100.00;52187.75;2087897;28;26567;-74
2023/04/11 00:54:54;;;;;;;5.88;1.10;;;;;;;-146.25;100.00;52214.09;2072909;28;20801;-74
2023/04/11 00:55:56;;;;;;;5.47;0.68;;;;;;;-146.25;100.00;52220.19;2072442;28;24828;-75
2023/04/11 00:57:03;;;;;;;1.73;0.40;;;;;;;-146.25;100.00;52181.66;2081365;28;24900;-74
2023/04/11 00:58:06;;;;;;;3.05;0.40;;;;;;;-146.25;100.00;52151.25;2080531;28;29553;-74
2023/04/11 00:59:09;;;;;;;1.10;0.40;;;;;;;-146.25;100.00;52165.44;2080632;28;20053;-74
2023/04/11 01:00:14;;;;;;;1.65;0.40;;;;;;;-146.25;100.00;52165.44;2080045;28;27635;-73
2023/04/11 01:01:18;;;;;;;4.80;0.70;;;;;;;-146.25;100.00;52169.50;2080596;28;20751;-74
2023/04/11 01:02:20;;;;;;;2.08;0.40;;;;;;;-146.25;100.00;52189.78;2071660;28;29723;-74
2023/04/11 01:03:22;;;;;;;2.58;0.60;;;;;;;-146.25;100.00;52185.72;2081047;28;20216;-74
2023/04/11 01:04:33;;;;;;;3.15;0.40;;;;;;;-146.25;100.00;52181.66;2079971;28;33475;-74
2023/04/11 01:05:36;;;;;;;3.22;0.60;;;;;;;-146.25;100.00;52191.81;2073683;28;20499;-74
2023/04/11 01:06:37;;;;;;;4.40;0.60;;;;;;;-146.25;100.00;52187.75;2072125;28;20868;-74
2023/04/11 01:07:42;;;;;;;6.55;0.70;;;;;;;-146.25;100.00;52189.78;2080153;28;27892;-74
2023/04/11 01:08:46;;;;;;;3.75;0.70;;;;;;;-146.25;100.00;52185.72;2080339;28;20176;-74
2023/04/11 01:09:51;;;;;;;1.73;0.50;;;;;;;-146.25;100.00;52169.50;2064621;28;31409;-74
2023/04/11 01:10:53;;;;;;;3.72;0.68;;;;;;;-146.25;100.00;52147.19;2072724;28;31175;-74
2023/04/11 01:11:56;;;;;;;4.60;0.73;;;;;;;-146.25;100.00;52179.63;2080447;28;21550;-74
2023/04/11 01:12:59;;;;;;;3.85;0.90;;;;;;;-146.25;100.00;52157.34;2072284;28;29574;-74
2023/04/11 01:14:02;;;;;;;6.53;1.00;;;;;;;-146.25;100.00;52141.13;2073032;28;20085;-74
2023/04/11 01:15:05;;;;;;;3.53;0.93;;;;;;;-146.25;100.00;52181.66;2064062;28;29964;-75
2023/04/11 01:16:08;;;;;;;5.03;0.95;;;;;;;-146.25;100.00;52193.81;2072846;28;20877;-74
2023/04/11 01:17:12;;;;;;;4.35;0.90;;;;;;;-146.25;100.00;52173.56;2080183;28;20909;-75
2023/04/11 01:18:14;;;;;;;4.60;0.90;;;;;;;-146.25;100.00;52193.81;2080713;28;20054;-75
2023/04/11 01:19:21;;;;;;;3.60;0.60;;;;;;;-146.25;100.00;52189.78;2080467;28;32690;-75
2023/04/11 01:20:25;;;;;;;2.97;0.70;;;;;;;-146.25;100.00;52177.59;2080336;28;21206;-75
2023/04/11 01:21:27;;;;;;;7.13;0.80;;;;;;;-146.25;100.00;52197.88;2072453;28;21646;-74
2023/04/11 01:22:29;;;;;;;3.33;0.50;;;;;;;-146.25;100.00;52187.75;2080503;28;20954;-74
2023/04/11 01:23:33;;;;;;;4.43;0.40;;;;;;;-146.25;100.00;52195.84;2072043;28;20855;-74
2023/04/11 01:24:34;;;;;;;3.25;0.73;;;;;;;-146.25;100.00;52163.41;2064578;28;20154;-74
2023/04/11 01:25:36;;;;;;;2.30;0.60;;;;;;;-146.25;100.00;52199.91;2072257;28;20038;-74
2023/04/11 01:26:40;;;;;;;3.03;0.60;;;;;;;-146.25;100.00;52181.66;2072208;28;20061;-74
2023/04/11 01:27:43;;;;;;;3.55;0.68;;;;;;;-146.25;100.00;52206.00;2064365;28;20078;-73
2023/04/11 01:28:45;;;;;;;3.00;0.82;;;;;;;-146.25;100.00;52173.56;2072387;28;24006;-73
2023/04/11 01:29:47;;;;;;;3.35;0.98;;;;;;;-146.25;100.00;52165.44;2080281;28;20081;-73
2023/04/11 01:30:51;;;;;;;4.63;0.60;;;;;;;-146.25;100.00;52222.22;2080142;28;20045;-72
2023/04/11 01:31:54;;;;;;;1.90;0.75;;;;;;;-146.25;100.00;52177.59;2080078;28;20999;-72
2023/04/11 01:32:55;;;;;;;3.95;0.85;;;;;;;-146.25;100.00;52201.94;2071420;28;20134;-72
2023/04/11 01:33:59;;;;;;;4.43;0.70;;;;;;;-146.25;100.00;52187.75;2072291;28;20896;-72
2023/04/11 01:35:04;;;;;;;6.45;1.10;;;;;;;-146.25;100.00;52169.50;2080038;28;20148;-72
2023/04/11 01:36:06;;;;;;;5.68;1.10;;;;;;;-146.25;100.00;52185.72;2071146;28;31819;-72
2023/04/11 01:37:08;;;;;;;5.50;0.90;;;;;;;-146.25;100.00;52167.47;2064418;28;29724;-72
2023/04/11 01:38:10;;;;;;;4.07;0.93;;;;;;;-146.25;100.00;52173.56;2072585;28;20827;-72
2023/04/11 01:39:12;;;;;;;3.17;0.93;;;;;;;-146.25;100.00;52197.88;2080264;28;20252;-72
2023/04/11 01:40:17;;;;;;;6.47;1.23;;;;;;;-146.25;100.00;52151.25;2079760;28;34729;-74
2023/04/11 01:41:23;;;;;;;4.88;1.08;;;;;;;-146.25;100.00;52193.81;2080020;28;27883;-72
2023/04/11 01:42:26;;;;;;;3.25;0.73;;;;;;;-146.25;100.00;52187.75;2080384;28;20037;-72
2023/04/11 01:43:28;;;;;;;4.05;1.30;;;;;;;-146.25;100.00;52206.00;2071675;28;27322;-73
2023/04/11 01:44:32;;;;;;;5.07;1.00;;;;;;;-146.25;100.00;52139.09;2079885;28;30147;-71
2023/04/11 01:45:38;;;;;;;5.00;0.90;;;;;;;-146.25;100.00;52183.69;2080231;28;20041;-72
2023/04/11 01:46:42;;;;;;;5.40;1.00;;;;;;;-146.25;100.00;52149.22;2064655;28;24600;-71
2023/04/11 01:47:44;;;;;;;6.20;0.70;;;;;;;-146.25;100.00;52177.59;2072359;28;25636;-72
2023/04/11 01:48:48;;;;;;;5.65;0.85;;;;;;;-146.25;100.00;52173.56;2079540;28;31910;-71
2023/04/11 01:49:52;;;;;;;5.28;1.00;;;;;;;-146.25;100.00;52177.59;2072897;28;28294;-71
2023/04/11 01:50:56;;;;;;;3.45;0.90;;;;;;;-146.25;100.00;52201.94;2087867;28;31578;-72
2023/04/11 01:51:59;;;;;;;4.03;0.68;;;;;;;-146.25;100.00;52173.56;2087565;28;21004;-71
2023/04/11 01:53:00;;;;;;;6.13;1.00;;;;;;;-146.25;100.00;52141.13;2080139;28;22464;-71
2023/04/11 01:54:04;;;;;;;6.47;0.80;;;;;;;-146.25;100.00;52208.03;2088069;28;20069;-71
2023/04/11 01:55:06;;;;;;;4.05;0.63;;;;;;;-146.25;100.00;52201.94;2088320;28;20926;-71
2023/04/11 01:56:11;;;;;;;6.97;0.77;;;;;;;-146.25;100.00;52175.56;2080218;28;20968;-72
2023/04/11 01:57:13;;;;;;;4.10;0.50;;;;;;;-146.25;100.00;52177.59;2080029;28;20286;-71
2023/04/11 01:58:15;;;;;;;7.35;0.90;;;;;;;-146.25;100.00;52155.31;2079941;28;20989;-71
2023/04/11 01:59:18;;;;;;;6.03;0.60;;;;;;;-146.25;100.00;52165.44;2080503;28;20957;-71
2023/04/11 02:00:20;;;;;;;2.97;0.50;;;;;;;-146.25;100.00;52212.06;2078886;28;20042;-72
2023/04/11 02:01:22;;;;;;;6.07;0.60;;;;;;;-146.25;100.00;52214.09;2088000;28;29889;-72
2023/04/11 02:02:24;;;;;;;6.40;0.80;;;;;;;-146.25;100.00;52173.56;2080967;28;20054;-71
2023/04/11 02:03:26;;;;;;;5.60;0.75;;;;;;;-146.25;100.00;52187.75;2079914;28;30701;-71
2023/04/11 02:04:28;;;;;;;2.47;0.60;;;;;;;-146.25;100.00;52201.94;2079753;28;20034;-71
2023/04/11 02:05:30;;;;;;;5.35;0.60;;;;;;;-146.25;100.00;52181.66;2079240;28;34292;-71
2023/04/11 02:06:32;;;;;;;4.75;0.80;;;;;;;-146.25;100.00;52171.53;2080107;28;20038;-71
2023/04/11 02:07:34;;;;;;;2.30;0.65;;;;;;;-146.25;100.00;52210.03;2079323;28;22737;-71
2023/04/11 02:08:36;;;;;;;3.55;0.50;;;;;;;-146.25;100.00;52171.53;2079047;28;31415;-71
2023/04/11 02:09:40;;;;;;;5.00;0.50;;;;;;;-146.25;100.00;52183.69;2081024;28;20042;-72
2023/04/11 02:10:41;;;;;;;5.88;0.75;;;;;;;-146.25;100.00;52236.41;2080216;28;32192;-72
2023/04/11 02:11:43;;;;;;;2.60;0.52;;;;;;;-146.25;100.00;52171.53;2081084;28;20034;-71
2023/04/11 02:12:45;;;;;;;5.10;0.60;;;;;;;-146.25;100.00;52203.97;2080121;28;31192;-71
2023/04/11 02:13:47;;;;;;;3.05;0.60;;;;;;;-146.25;100.00;52185.72;2079755;28;31496;-73
2023/04/11 02:14:49;;;;;;;2.60;0.60;;;;;;;-146.25;100.00;52185.72;2079489;28;32069;-71
2023/04/11 02:15:50;;;;;;;4.88;0.68;;;;;;;-146.25;100.00;52203.97;2079804;28;20977;-71
2023/04/11 02:16:55;;;;;;;3.75;0.50;;;;;;;-146.25;100.00;52238.44;2079768;28;20176;-71
2023/04/11 02:17:59;;;;;;;3.58;0.50;;;;;;;-146.25;100.00;52169.50;2072322;28;28637;-72
2023/04/11 02:19:02;;;;;;;3.35;0.30;;;;;;;-146.25;100.00;52193.81;2079635;28;20740;-71
2023/04/11 02:20:05;;;;;;;4.85;0.60;;;;;;;-146.25;100.00;52187.75;2080870;28;29386;-72
2023/04/11 02:21:07;;;;;;;2.65;0.50;;;;;;;-146.25;100.00;52201.94;2079349;28;26698;-72
2023/04/11 02:22:10;;;;;;;4.53;0.65;;;;;;;-146.25;100.00;52193.81;2079757;28;31949;-73
2023/04/11 02:23:11;;;;;;;3.00;0.43;;;;;;;-146.25;100.00;52193.81;2079800;28;33581;-72
2023/04/11 02:24:13;;;;;;;4.85;0.50;;;;;;;-146.25;100.00;52187.75;2079647;28;35123;-72
2023/04/11 02:25:15;;;;;;;3.28;0.40;;;;;;;-146.25;100.00;52203.97;2079999;28;24702;-71
2023/04/11 02:26:17;;;;;;;3.80;0.40;;;;;;;-146.25;100.00;52220.19;2071851;28;30002;-72
2023/04/11 02:27:19;;;;;;;2.47;0.60;;;;;;;-146.25;100.00;52171.53;2079354;28;25735;-72
2023/04/11 02:28:23;;;;;;;5.50;0.55;;;;;;;-146.25;100.00;52203.97;2080625;28;20038;-72
2023/04/11 02:29:27;;;;;;;5.30;0.70;;;;;;;-146.25;100.00;52181.66;2080150;28;21005;-72
2023/04/11 02:30:29;;;;;;;4.65;0.50;;;;;;;-146.25;100.00;52185.72;2080403;28;20831;-72
2023/04/11 02:31:30;;;;;;;3.72;0.50;;;;;;;-146.25;100.00;52201.94;2079582;28;27234;-72
2023/04/11 02:32:34;;;;;;;3.50;0.40;;;;;;;-146.25;100.00;52191.81;2080423;28;28240;-73
2023/04/11 02:33:35;;;;;;;4.07;0.57;;;;;;;-146.25;100.00;52181.66;2079033;28;28030;-73
2023/04/11 02:34:37;;;;;;;2.13;0.50;;;;;;;-146.25;100.00;52175.56;2079743;28;32638;-73
2023/04/11 02:35:39;;;;;;;3.63;0.52;;;;;;;-146.25;100.00;52177.59;2080511;28;20128;-73
2023/04/11 02:36:42;;;;;;;1.77;0.40;;;;;;;-146.25;100.00;52169.50;2079575;28;26400;-72
2023/04/11 02:37:45;;;;;;;2.83;0.60;;;;;;;-146.25;100.00;52179.63;2079049;28;38034;-73
2023/04/11 02:38:46;;;;;;;4.60;0.77;;;;;;;-146.25;100.00;52210.03;2079884;28;20034;-72
2023/04/11 02:39:48;;;;;;;4.90;0.68;;;;;;;-146.25;100.00;52214.09;2071290;28;23734;-72
2023/04/11 02:40:50;;;;;;;2.85;0.60;;;;;;;-146.25;100.00;52187.75;2079759;28;20053;-73
2023/04/11 02:41:52;;;;;;;3.78;0.70;;;;;;;-146.25;100.00;52199.91;2079729;28;22495;-73
2023/04/11 02:42:53;;;;;;;5.28;0.57;;;;;;;-146.25;100.00;52212.06;2079544;28;30384;-73
2023/04/11 02:43:55;;;;;;;6.72;0.60;;;;;;;-146.25;100.00;52187.75;2079837;28;20820;-73
2023/04/11 02:44:57;;;;;;;4.72;0.80;;;;;;;-146.25;100.00;52197.88;2080019;28;20868;-73
2023/04/11 02:46:02;;;;;;;2.95;0.90;;;;;;;-146.25;100.00;52183.69;2072080;28;20260;-73
2023/04/11 02:47:13;;;;;;;3.78;0.50;;;;;;;-146.25;100.00;52185.72;2073859;28;20196;-72
2023/04/11 02:48:15;;;;;;;3.05;0.57;;;;;;;-146.25;100.00;52216.13;2071315;28;20057;-73
2023/04/11 02:49:19;;;;;;;2.13;0.65;;;;;;;-146.25;100.00;52218.16;2064209;28;20043;-72
2023/04/11 02:50:21;;;;;;;6.78;0.90;;;;;;;-146.25;100.00;52222.22;2077517;28;20056;-73
2023/04/11 02:51:27;;;;;;;2.15;0.65;;;;;;;-146.25;100.00;52201.94;2087450;28;20883;-72
2023/04/11 02:52:29;;;;;;;4.15;0.70;;;;;;;-146.25;100.00;52208.03;2079845;28;20042;-73
2023/04/11 02:53:30;;;;;;;4.88;0.80;;;;;;;-146.25;100.00;52230.31;2079693;28;20041;-73
2023/04/11 02:54:32;;;;;;;6.10;0.88;;;;;;;-146.25;100.00;52191.81;2071409;28;20816;-73
2023/04/11 02:55:35;;;;;;;5.18;0.75;;;;;;;-146.25;100.00;52210.03;2071892;28;20093;-72
2023/04/11 02:56:37;;;;;;;4.32;0.45;;;;;;;-146.25;100.00;52189.78;2071521;28;20046;-73
2023/04/11 02:57:39;;;;;;;2.60;0.52;;;;;;;-146.25;100.00;52197.88;2072120;28;20038;-72
2023/04/11 02:58:45;;;;;;;4.75;0.70;;;;;;;-146.25;100.00;52177.59;2071908;28;20839;-73
2023/04/11 02:59:50;;;;;;;4.25;0.60;;;;;;;-146.25;100.00;52181.66;2071888;28;20042;-72
2023/04/11 03:00:59;;;;;;;4.65;0.70;;;;;;;-146.25;100.00;52189.78;2080691;28;20061;-73
2023/04/11 03:02:01;;;;;;;3.40;0.52;;;;;;;-146.25;100.00;52201.94;2087715;28;20034;-73
2023/04/11 03:03:05;;;;;;;3.30;0.47;;;;;;;-146.25;100.00;52226.25;2079355;28;20045;-73
2023/04/11 03:04:12;;;;;;;4.00;0.80;;;;;;;-146.25;100.00;52216.13;2072538;28;20046;-74
2023/04/11 03:05:26;;;;;;;4.30;0.68;;;;;;;-146.25;100.00;52201.94;2079855;28;20038;-73
2023/04/11 03:06:28;;;;;;;5.93;0.90;;;;;;;-146.25;100.00;52218.16;2078930;28;20069;-74
2023/04/11 03:07:37;;;;;;;5.40;0.60;;;;;;;-146.25;100.00;52222.22;2071965;28;20924;-73
2023/04/11 03:08:39;;;;;;;5.07;0.70;;;;;;;-146.25;100.00;52199.91;2072419;28;20047;-74
2023/04/11 03:09:44;;;;;;;3.63;0.40;;;;;;;-146.25;100.00;52226.25;2080539;28;20030;-74
2023/04/11 03:10:45;;;;;;;4.88;0.70;;;;;;;-146.25;100.00;52230.31;2088098;28;20041;-73
2023/04/11 03:11:48;;;;;;;4.07;0.68;;;;;;;-146.25;100.00;52208.03;2079754;28;20139;-73
2023/04/11 03:12:50;;;;;;;7.10;0.82;;;;;;;-146.25;100.00;52201.94;2079574;28;20933;-74
2023/04/11 03:13:51;;;;;;;6.13;0.88;;;;;;;-146.25;100.00;52185.72;2080010;28;20966;-74
2023/04/11 03:14:53;;;;;;;5.88;0.70;;;;;;;-146.25;100.00;52197.88;2079479;28;20053;-74
2023/04/11 03:15:55;;;;;;;8.70;0.95;;;;;;;-146.25;100.00;52201.94;2079451;28;20076;-74
2023/04/11 03:17:00;;;;;;;9.20;0.95;;;;;;;-146.25;100.00;52193.81;2088339;28;20042;-74
2023/04/11 03:18:06;;;;;;;4.65;1.00;;;;;;;-146.25;100.00;52179.63;2086924;28;20812;-74
2023/04/11 03:19:11;;;;;;;5.05;0.88;;;;;;;-146.25;100.00;52226.25;2079661;28;20049;-74
2023/04/11 03:20:12;;;;;;;5.82;0.82;;;;;;;-146.25;100.00;52161.38;2079562;28;20054;-74
2023/04/11 03:21:22;;;;;;;3.67;0.70;;;;;;;-146.25;100.00;52185.72;2071720;28;20165;-74
2023/04/11 03:22:24;;;;;;;5.63;0.90;;;;;;;-146.25;100.00;52161.38;2071356;28;25584;-74
2023/04/11 03:23:26;;;;;;;4.18;0.80;;;;;;;-146.25;100.00;52210.03;2071371;28;20180;-74
2023/04/11 03:24:28;;;;;;;3.53;0.80;;;;;;;-146.25;100.00;52195.84;2071999;28;20212;-74
2023/04/11 03:25:30;;;;;;;5.38;0.98;;;;;;;-146.25;100.00;52206.00;2071808;28;20031;-74
2023/04/11 03:26:37;;;;;;;5.68;0.75;;;;;;;-146.25;100.00;52246.53;2071536;28;20140;-74
2023/04/11 03:27:44;;;;;;;4.95;0.70;;;;;;;-146.25;100.00;52189.78;2079358;28;20058;-74
2023/04/11 03:28:46;;;;;;;4.78;0.93;;;;;;;-146.25;100.00;52220.19;2071252;28;20043;-74
2023/04/11 03:29:51;;;;;;;2.92;0.50;;;;;;;-146.25;100.00;52191.81;2078922;28;20075;-74
2023/04/11 03:31:00;;;;;;;7.00;1.33;;;;;;;-146.25;100.00;52212.06;2072310;28;20189;-74
2023/04/11 03:32:02;;;;;;;4.13;0.77;;;;;;;-146.25;100.00;52195.84;2071040;28;20046;-73
2023/04/11 03:33:08;;;;;;;6.40;0.88;;;;;;;-146.25;100.00;52230.31;2065001;28;20149;-74
2023/04/11 03:34:10;;;;;;;5.38;0.98;;;;;;;-146.25;100.00;52175.56;2078775;28;30503;-73
2023/04/11 03:35:14;;;;;;;7.00;0.77;;;;;;;-146.25;100.00;52218.16;2079478;28;20045;-74
2023/04/11 03:36:21;;;;;;;5.25;0.80;;;;;;;-146.25;100.00;52201.94;2079267;28;20108;-73
2023/04/11 03:37:23;;;;;;;5.45;0.75;;;;;;;-146.25;100.00;52185.72;2071801;28;20119;-73
2023/04/11 03:38:25;;;;;;;5.13;0.82;;;;;;;-146.25;100.00;52210.03;2079067;28;27667;-73
2023/04/11 03:39:27;;;;;;;7.43;1.00;;;;;;;-146.25;100.00;52214.09;2080406;28;20111;-74
2023/04/11 03:40:30;;;;;;;7.28;1.10;;;;;;;-146.25;100.00;52210.03;2086716;28;20045;-73
2023/04/11 03:41:45;;;;;;;4.82;0.88;;;;;;;-146.25;100.00;52193.81;2079516;28;20045;-73
2023/04/11 03:42:47;;;;;;;7.75;1.17;;;;;;;-146.25;100.00;52236.41;2071214;28;20054;-73
2023/04/11 03:43:55;;;;;;;7.32;1.00;;;;;;;-146.25;100.00;52222.22;2072052;28;20143;-73
2023/04/11 03:45:00;;;;;;;6.88;1.00;;;;;;;-146.25;100.00;52135.03;2071610;28;20049;-73
2023/04/11 03:46:02;;;;;;;7.60;1.23;;;;;;;-146.25;100.00;52244.50;2071496;28;20039;-73
2023/04/11 03:47:10;;;;;;;8.07;1.33;;;;;;;-146.25;100.00;52171.53;2072339;28;20180;-74
2023/04/11 03:48:16;;;;;;;8.27;0.95;;;;;;;-146.25;100.00;52201.94;2071795;28;20895;-73
2023/04/11 03:49:28;;;;;;;9.45;1.10;;;;;;;-146.25;100.00;52177.59;2073018;28;20030;-73
2023/04/11 03:50:30;;;;;;;9.80;1.25;;;;;;;-146.25;100.00;52238.44;2078976;28;20911;-73
2023/04/11 03:51:35;;;;;;;13.57;1.23;;;;;;;-146.25;100.00;52220.19;2071393;28;20038;-73
2023/04/11 03:52:40;;;;;;;8.90;1.40;;;;;;;-146.25;100.00;52214.09;2071691;28;20494;-73
2023/04/11 03:53:46;;;;;;;7.05;1.20;;;;;;;-146.25;100.00;52210.03;2071922;28;20092;-74
2023/04/11 03:54:56;;;;;;;6.68;1.00;;;;;;;-146.25;100.00;52185.72;2072414;28;20105;-74
2023/04/11 03:56:04;;;;;;;10.35;1.92;;;;;;;-146.25;100.00;52175.56;2080142;28;20267;-73
2023/04/11 03:57:10;;;;;;;6.70;2.83;;;;;;;-146.25;100.00;52201.94;2078997;28;20108;-73
2023/04/11 03:58:12;;;;;;;10.07;1.40;;;;;;;-146.25;100.00;52206.00;2071397;28;20823;-73
2023/04/11 03:59:16;;;;;;;7.10;1.17;;;;;;;-146.25;100.00;52201.94;2079152;28;20038;-74
2023/04/11 04:00:35;;;;;;;6.88;1.25;;;;;;;-146.25;100.00;52181.66;2085580;28;20069;-73
2023/04/11 04:01:41;;;;;;;8.32;1.27;;;;;;;-146.25;100.00;52193.81;2071678;28;20055;-74
2023/04/11 04:02:43;;;;;;;7.13;1.15;;;;;;;-146.25;100.00;52195.84;2079679;28;20042;-73
2023/04/11 04:03:47;;;;;;;7.05;1.05;;;;;;;-146.25;100.00;52214.09;2079286;28;20050;-73
2023/04/11 04:04:57;;;;;;;8.00;1.40;;;;;;;-146.25;100.00;52206.00;2071132;28;20038;-73
2023/04/11 04:06:04;;;;;;;8.88;1.52;;;;;;;-146.25;100.00;52212.06;2081070;28;20930;-74
2023/04/11 04:07:08;;;;;;;7.55;1.42;;;;;;;-146.25;100.00;52185.72;2086872;28;20053;-74
2023/04/11 04:08:19;;;;;;;9.05;1.17;;;;;;;-146.25;100.00;52189.78;2072006;28;20082;-74
2023/04/11 04:09:23;;;;;;;10.50;1.83;;;;;;;-146.25;100.00;52214.09;2072109;28;20176;-73
2023/04/11 04:10:28;;;;;;;5.47;1.02;;;;;;;-146.25;100.00;52203.97;2072001;28;20097;-74
2023/04/11 04:11:30;;;;;;;7.25;1.10;;;;;;;-146.25;100.00;52206.00;2070663;28;20046;-74
2023/04/11 04:12:32;;;;;;;7.70;1.05;;;;;;;-146.25;100.00;52203.97;2071416;28;20184;-75
2023/04/11 04:13:43;;;;;;;9.85;1.35;;;;;;;-146.25;100.00;52183.69;2078356;28;20992;-75
2023/04/11 04:14:49;;;;;;;10.57;1.42;;;;;;;-146.25;100.00;52220.19;2071733;28;20903;-75
2023/04/11 04:15:51;;;;;;;8.27;1.10;;;;;;;-146.25;100.00;52216.13;2070798;28;20043;-76
2023/04/11 04:16:58;;;;;;;5.70;0.73;;;;;;;-146.25;100.00;52208.03;2071979;28;20166;-76
2023/04/11 04:18:02;;;;;;;4.22;0.93;;;;;;;-146.25;100.00;52203.97;2079305;28;20054;-76
2023/04/11 04:19:19;;;;;;;6.15;0.95;;;;;;;-146.25;100.00;52173.56;2081201;28;20080;-77
2023/04/11 04:20:21;;;;;;;5.45;0.82;;;;;;;-146.25;100.00;52193.81;2077469;28;20160;-75
2023/04/11 04:21:31;;;;;;;5.60;0.88;;;;;;;-146.25;100.00;52212.06;2081585;28;20050;-76
2023/04/11 04:22:33;;;;;;;5.50;0.70;;;;;;;-146.25;100.00;52210.03;2080956;28;20050;-76
2023/04/11 04:23:38;;;;;;;6.68;0.93;;;;;;;-146.25;100.00;52214.09;2080863;28;20889;-76
2023/04/11 04:24:56;;;;;;;7.10;1.13;;;;;;;-146.25;100.00;52244.50;2088981;28;20173;-76
2023/04/11 04:26:02;;;;;;;8.27;1.08;;;;;;;-146.25;100.00;52228.28;2081401;28;20930;-76
2023/04/11 04:27:10;;;;;;;3.83;1.05;;;;;;;-146.25;100.00;52203.97;2089116;28;20089;-77
2023/04/11 04:28:21;;;;;;;4.18;0.70;;;;;;;-146.25;100.00;52181.66;2088577;28;20111;-77
2023/04/11 04:29:32;;;;;;;5.13;0.77;;;;;;;-146.25;100.00;52222.22;2089252;28;20049;-77
2023/04/11 04:30:36;;;;;;;4.88;0.90;;;;;;;-146.25;100.00;52212.06;2088694;28;20890;-77
2023/04/11 04:31:43;;;;;;;7.07;0.90;;;;;;;-146.25;100.00;52212.06;2081474;28;20049;-77
2023/04/11 04:32:45;;;;;;;5.50;0.85;;;;;;;-146.25;100.00;52203.97;2080390;28;20046;-77
2023/04/11 04:33:48;;;;;;;5.72;1.20;;;;;;;-146.25;100.00;52195.84;2080992;28;20265;-77
2023/04/11 04:34:55;;;;;;;7.43;1.38;;;;;;;-146.25;100.00;52222.22;2081319;28;20038;-77
2023/04/11 04:36:03;;;;;;;9.43;1.48;;;;;;;-146.25;100.00;52226.25;2081368;28;20177;-77
2023/04/11 04:37:06;;;;;;;6.35;1.27;;;;;;;-146.25;100.00;52234.38;2088882;28;20077;-77
2023/04/11 04:38:16;;;;;;;9.00;1.40;;;;;;;-146.25;100.00;52216.13;2088913;28;20862;-77
2023/04/11 04:39:24;;;;;;;7.50;1.17;;;;;;;-146.25;100.00;52201.94;2089034;28;20041;-77
2023/04/11 04:40:30;;;;;;;9.00;1.52;;;;;;;-146.25;100.00;52201.94;2081137;28;20050;-76
2023/04/11 04:41:38;;;;;;;6.70;1.30;;;;;;;-146.25;100.00;52232.34;2081664;28;20286;-77
2023/04/11 04:42:42;;;;;;;6.80;1.20;;;;;;;-146.25;100.00;52201.94;2088521;28;24157;-76
2023/04/11 04:43:47;;;;;;;7.75;1.40;;;;;;;-146.25;100.00;52161.38;2089300;28;20044;-76
2023/04/11 04:44:55;;;;;;;4.75;1.30;;;;;;;-146.25;100.00;52203.97;2088820;28;20077;-77
2023/04/11 04:45:57;;;;;;;5.78;0.82;;;;;;;-146.25;100.00;52181.66;2089103;28;20893;-77
2023/04/11 04:47:09;;;;;;;5.35;1.08;;;;;;;-146.25;100.00;52206.00;2089231;28;20033;-76
2023/04/11 04:48:14;;;;;;;6.13;0.95;;;;;;;-146.25;100.00;52171.53;2089298;28;24597;-76
2023/04/11 04:49:16;;;;;;;4.85;0.98;;;;;;;-146.25;100.00;52242.50;2088526;28;20883;-75
2023/04/11 04:50:19;;;;;;;8.45;0.90;;;;;;;-146.25;100.00;52181.66;2088414;28;32876;-75